createdAt,value
2023-05-24T00:00:00.421Z,45.77
2023-05-24T00:01:00.501Z,45.78
2023-05-24T00:02:00.548Z,45.78
2023-05-24T00:03:00.691Z,45.67
2023-05-24T00:04:00.864Z,45.66
2023-05-24T00:05:00.829Z,45.60
2023-05-24T00:06:00.754Z,45.66
2023-05-24T00:07:00.763Z,45.65
2023-05-24T00:08:00.812Z,45.66
2023-05-24T00:09:00.804Z,45.68
2023-05-24T00:10:00.891Z,45.62
2023-05-24T00:11:00.926Z,45.55
2023-05-24T00:12:00.986Z,45.47
2023-05-24T00:13:01.057Z,45.40
2023-05-24T00:14:01.068Z,45.34
2023-05-24T00:15:01.139Z,45.26
2023-05-24T00:16:01.146Z,45.24
2023-05-24T00:17:01.218Z,45.25
2023-05-24T00:18:01.325Z,45.30
2023-05-24T00:19:01.303Z,45.21
2023-05-24T00:20:01.368Z,45.24
2023-05-24T00:21:01.448Z,45.24
2023-05-24T00:22:01.436Z,45.23
2023-05-24T00:23:01.479Z,45.25
2023-05-24T00:24:01.529Z,45.24
2023-05-24T00:25:01.560Z,45.21
2023-05-24T00:26:01.603Z,45.21
2023-05-24T00:27:01.679Z,45.20
2023-05-24T00:28:01.715Z,45.14
2023-05-24T00:29:01.776Z,45.11
2023-05-24T00:30:01.826Z,45.12
2023-05-24T00:31:01.892Z,45.06
2023-05-24T00:32:01.932Z,45.09
2023-05-24T00:33:02.005Z,45.08
2023-05-24T00:34:01.997Z,45.05
2023-05-24T00:35:02.085Z,44.99
2023-05-24T00:36:02.113Z,44.96
2023-05-24T00:37:02.150Z,44.92
2023-05-24T00:38:02.193Z,44.91
2023-05-24T00:39:02.250Z,44.90
2023-05-24T00:40:02.327Z,44.84
2023-05-24T00:41:02.323Z,44.78
2023-05-24T00:42:02.400Z,44.83
2023-05-24T00:43:02.437Z,44.78
2023-05-24T00:44:02.495Z,44.73
2023-05-24T00:45:02.548Z,44.70
2023-05-24T00:46:02.662Z,44.67
2023-05-24T00:47:02.670Z,44.68
2023-05-24T00:48:02.750Z,44.65
2023-05-24T00:49:02.760Z,44.55
2023-05-24T00:50:02.795Z,44.51
2023-05-24T00:51:02.879Z,44.53
2023-05-24T00:52:02.957Z,44.51
2023-05-24T00:53:02.982Z,44.47
2023-05-24T00:54:03.080Z,44.44
2023-05-24T00:55:03.133Z,44.48
2023-05-24T00:56:03.160Z,44.44
2023-05-24T00:57:03.226Z,44.41
2023-05-24T00:58:03.258Z,44.37
2023-05-24T00:59:03.346Z,44.40
2023-05-24T01:00:03.411Z,44.42
2023-05-24T01:01:03.513Z,44.36
2023-05-24T01:02:03.685Z,44.27
2023-05-24T01:03:03.605Z,44.27
2023-05-24T01:04:03.629Z,44.29
2023-05-24T01:05:03.683Z,44.31
2023-05-24T01:06:03.762Z,44.31
2023-05-24T01:07:03.845Z,44.30
2023-05-24T01:08:03.864Z,44.34
2023-05-24T01:09:03.939Z,44.32
2023-05-24T01:10:03.995Z,44.33
2023-05-24T01:11:04.059Z,44.35
2023-05-24T01:12:04.102Z,44.34
2023-05-24T01:13:04.179Z,44.35
2023-05-24T01:14:04.207Z,44.36
2023-05-24T01:15:04.289Z,44.37
2023-05-24T01:16:04.368Z,44.32
2023-05-24T01:17:04.422Z,44.36
2023-05-24T01:18:04.566Z,44.36
2023-05-24T01:19:04.555Z,44.30
2023-05-24T01:20:04.611Z,44.22
2023-05-24T01:21:04.674Z,44.28
2023-05-24T01:22:04.769Z,44.29
2023-05-24T01:23:04.778Z,44.36
2023-05-24T01:24:04.852Z,44.38
2023-05-24T01:25:04.915Z,44.38
2023-05-24T01:26:05.003Z,44.41
2023-05-24T01:27:05.071Z,44.30
2023-05-24T01:28:05.128Z,44.34
2023-05-24T01:29:05.216Z,44.29
2023-05-24T01:30:05.239Z,44.32
2023-05-24T01:31:05.325Z,44.41
2023-05-24T01:32:05.344Z,44.37
2023-05-24T01:33:05.400Z,44.39
2023-05-24T01:34:05.453Z,44.34
2023-05-24T01:35:05.532Z,44.41
2023-05-24T01:36:05.555Z,44.38
2023-05-24T01:37:05.653Z,44.39
2023-05-24T01:38:05.726Z,44.42
2023-05-24T01:39:05.760Z,44.41
2023-05-24T01:40:05.840Z,44.43
2023-05-24T01:41:05.931Z,44.48
2023-05-24T01:42:05.952Z,44.45
2023-05-24T01:43:05.991Z,44.47
2023-05-24T01:44:06.051Z,44.48
2023-05-24T01:45:06.090Z,44.45
2023-05-24T01:46:06.162Z,44.52
2023-05-24T01:47:06.252Z,44.59
2023-05-24T01:48:06.371Z,44.52
2023-05-24T01:49:06.286Z,44.54
2023-05-24T01:50:06.308Z,44.52
2023-05-24T01:51:06.299Z,44.56
2023-05-24T01:52:06.422Z,44.56
2023-05-24T01:53:06.395Z,44.51
2023-05-24T01:54:06.398Z,44.52
2023-05-24T01:55:06.401Z,44.44
2023-05-24T01:56:06.448Z,44.51
2023-05-24T01:57:06.458Z,44.53
2023-05-24T01:58:06.483Z,44.52
2023-05-24T01:59:06.526Z,44.54
2023-05-24T02:00:06.549Z,44.57
2023-05-24T02:01:06.643Z,44.55
2023-05-24T02:02:06.624Z,44.55
2023-05-24T02:03:06.798Z,44.61
2023-05-24T02:04:06.636Z,44.63
2023-05-24T02:05:06.681Z,44.62
2023-05-24T02:06:06.719Z,44.66
2023-05-24T02:07:06.727Z,44.69
2023-05-24T02:08:06.800Z,44.72
2023-05-24T02:09:06.837Z,44.69
2023-05-24T02:10:06.810Z,44.75
2023-05-24T02:11:06.868Z,44.75
2023-05-24T02:12:06.937Z,44.75
2023-05-24T02:13:06.985Z,44.72
2023-05-24T02:14:07.016Z,44.73
2023-05-24T02:15:07.077Z,44.75
2023-05-24T02:16:07.063Z,44.74
2023-05-24T02:17:07.162Z,44.78
2023-05-24T02:18:07.137Z,44.75
2023-05-24T02:19:07.160Z,44.74
2023-05-24T02:20:07.221Z,44.71
2023-05-24T02:21:07.181Z,44.65
2023-05-24T02:22:07.224Z,44.62
2023-05-24T02:23:07.244Z,44.60
2023-05-24T02:24:07.266Z,44.53
2023-05-24T02:25:07.275Z,44.51
2023-05-24T02:27:07.289Z,44.51
2023-05-24T02:28:07.265Z,44.49
2023-05-24T02:29:07.295Z,44.42
2023-05-24T02:30:07.259Z,44.42
2023-05-24T02:31:07.281Z,44.43
2023-05-24T02:32:07.261Z,44.46
2023-05-24T02:33:07.303Z,44.42
2023-05-24T02:34:07.253Z,44.48
2023-05-24T02:35:07.270Z,44.43
2023-05-24T02:36:07.271Z,44.43
2023-05-24T02:37:07.282Z,44.47
2023-05-24T02:38:07.280Z,44.46
2023-05-24T02:39:07.286Z,44.52
2023-05-24T02:40:07.284Z,44.56
2023-05-24T02:41:07.322Z,44.56
2023-05-24T02:42:07.333Z,44.64
2023-05-24T02:43:07.357Z,44.69
2023-05-24T02:44:07.339Z,44.64
2023-05-24T02:45:07.360Z,44.64
2023-05-24T02:46:07.410Z,44.68
2023-05-24T02:47:07.409Z,44.61
2023-05-24T02:48:07.452Z,44.68
2023-05-24T02:49:07.433Z,44.68
2023-05-24T02:50:07.454Z,44.70
2023-05-24T02:51:07.482Z,44.74
2023-05-24T02:52:07.445Z,44.68
2023-05-24T02:53:07.457Z,44.76
2023-05-24T02:54:07.436Z,44.71
2023-05-24T02:55:07.494Z,44.77
2023-05-24T02:56:07.473Z,44.71
2023-05-24T02:57:07.429Z,44.71
2023-05-24T02:58:07.448Z,44.68
2023-05-24T02:59:07.442Z,44.69
2023-05-24T03:00:07.422Z,44.64
2023-05-24T03:01:07.428Z,44.61
2023-05-24T03:02:07.470Z,44.61
2023-05-24T03:03:07.498Z,44.53
2023-05-24T03:04:07.487Z,44.53
2023-05-24T03:05:07.416Z,44.62
2023-05-24T03:06:07.407Z,44.69
2023-05-24T03:07:07.413Z,44.69
2023-05-24T03:08:07.395Z,44.68
2023-05-24T03:09:07.431Z,44.73
2023-05-24T03:10:07.406Z,44.72
2023-05-24T03:11:07.436Z,44.74
2023-05-24T03:12:07.400Z,44.76
2023-05-24T03:13:07.396Z,44.72
2023-05-24T03:14:07.409Z,44.79
2023-05-24T03:15:07.415Z,44.81
2023-05-24T03:16:07.432Z,44.79
2023-05-24T03:17:07.376Z,44.80
2023-05-24T03:18:07.478Z,44.78
2023-05-24T03:19:09.879Z,44.75
2023-05-24T03:20:07.502Z,44.74
2023-05-24T03:21:07.453Z,44.74
2023-05-24T03:22:07.398Z,44.76
2023-05-24T03:23:07.379Z,44.71
2023-05-24T03:24:07.358Z,44.75
2023-05-24T03:25:07.383Z,44.73
2023-05-24T03:26:07.343Z,44.75
2023-05-24T03:27:07.363Z,44.76
2023-05-24T03:28:07.349Z,44.68
2023-05-24T03:29:07.367Z,44.71
2023-05-24T03:30:07.386Z,44.74
2023-05-24T03:31:07.321Z,44.72
2023-05-24T03:32:07.367Z,44.77
2023-05-24T03:33:07.355Z,44.76
2023-05-24T03:34:07.290Z,44.79
2023-05-24T03:35:07.299Z,44.83
2023-05-24T03:36:07.277Z,44.85
2023-05-24T03:37:07.269Z,44.81
2023-05-24T03:38:07.249Z,44.78
2023-05-24T03:39:07.253Z,44.75
2023-05-24T03:40:07.290Z,44.69
2023-05-24T03:41:07.252Z,44.67
2023-05-24T03:42:07.267Z,44.58
2023-05-24T03:43:07.248Z,44.57
2023-05-24T03:44:07.252Z,44.53
2023-05-24T03:45:07.235Z,44.49
2023-05-24T03:46:07.217Z,44.47
2023-05-24T03:47:07.192Z,44.39
2023-05-24T03:48:07.193Z,44.39
2023-05-24T03:49:07.205Z,44.32
2023-05-24T03:50:07.176Z,44.29
2023-05-24T03:51:07.172Z,44.28
2023-05-24T03:52:07.190Z,44.33
2023-05-24T03:53:07.155Z,44.35
2023-05-24T03:54:07.186Z,44.38
2023-05-24T03:55:07.126Z,44.37
2023-05-24T03:56:07.153Z,44.38
2023-05-24T03:57:07.144Z,44.42
2023-05-24T03:58:07.082Z,44.43
2023-05-24T03:59:07.098Z,44.40
2023-05-24T04:00:07.114Z,44.43
2023-05-24T04:01:07.073Z,44.47
2023-05-24T04:02:07.079Z,44.41
2023-05-24T04:03:07.182Z,44.44
2023-05-24T04:04:07.083Z,44.44
2023-05-24T04:05:07.037Z,44.38
2023-05-24T04:06:07.060Z,44.31
2023-05-24T04:07:07.053Z,44.34
2023-05-24T04:08:07.033Z,44.35
2023-05-24T04:09:07.032Z,44.42
2023-05-24T04:10:06.996Z,44.39
2023-05-24T04:11:07.001Z,44.28
2023-05-24T04:12:07.031Z,44.30
2023-05-24T04:13:06.996Z,44.30
2023-05-24T04:14:06.986Z,44.33
2023-05-24T04:15:06.967Z,44.38
2023-05-24T04:16:06.979Z,44.37
2023-05-24T04:17:07.029Z,44.40
2023-05-24T04:18:07.056Z,44.37
2023-05-24T04:19:06.920Z,44.33
2023-05-24T04:20:06.991Z,44.32
2023-05-24T04:21:06.936Z,44.23
2023-05-24T04:22:06.904Z,44.24
2023-05-24T04:23:06.924Z,44.16
2023-05-24T04:24:06.922Z,44.15
2023-05-24T04:25:07.014Z,44.26
2023-05-24T04:26:06.913Z,44.31
2023-05-24T04:27:06.877Z,44.31
2023-05-24T04:28:06.912Z,44.27
2023-05-24T04:29:06.865Z,44.24
2023-05-24T04:30:06.879Z,44.25
2023-05-24T04:31:06.953Z,44.21
2023-05-24T04:32:06.836Z,44.20
2023-05-24T04:33:06.986Z,44.23
2023-05-24T04:34:06.839Z,44.19
2023-05-24T04:35:06.806Z,44.15
2023-05-24T04:36:06.847Z,44.12
2023-05-24T04:37:06.830Z,44.12
2023-05-24T04:38:06.802Z,44.12
2023-05-24T04:39:06.824Z,44.10
2023-05-24T04:40:06.790Z,44.05
2023-05-24T04:41:06.791Z,44.06
2023-05-24T04:42:06.769Z,44.04
2023-05-24T04:43:06.777Z,44.00
2023-05-24T04:44:06.769Z,44.02
2023-05-24T04:45:06.745Z,43.96
2023-05-24T04:46:08.937Z,44.00
2023-05-24T04:47:07.227Z,43.98
2023-05-24T04:48:07.070Z,43.96
2023-05-24T04:49:07.045Z,43.86
2023-05-24T04:50:07.076Z,43.86
2023-05-24T04:51:07.126Z,43.86
2023-05-24T04:52:07.136Z,43.83
2023-05-24T04:53:07.167Z,43.84
2023-05-24T04:54:07.215Z,43.82
2023-05-24T04:55:07.216Z,43.86
2023-05-24T04:56:07.239Z,43.83
2023-05-24T04:57:07.248Z,43.80
2023-05-24T04:58:07.271Z,43.88
2023-05-24T04:59:07.285Z,43.85
2023-05-24T05:00:07.326Z,43.87
2023-05-24T05:01:07.349Z,43.87
2023-05-24T05:02:07.463Z,43.86
2023-05-24T05:03:07.473Z,43.86
2023-05-24T05:04:07.575Z,43.89
2023-05-24T05:05:07.422Z,43.88
2023-05-24T05:06:07.447Z,43.82
2023-05-24T05:07:07.454Z,43.83
2023-05-24T05:08:07.465Z,43.79
2023-05-24T05:09:07.484Z,43.82
2023-05-24T05:10:07.519Z,43.77
2023-05-24T05:11:07.540Z,43.74
2023-05-24T05:12:07.553Z,43.77
2023-05-24T05:13:07.568Z,43.71
2023-05-24T05:14:07.588Z,43.72
2023-05-24T05:15:07.599Z,43.67
2023-05-24T05:16:07.626Z,43.66
2023-05-24T05:17:07.658Z,43.66
2023-05-24T05:18:07.734Z,43.63
2023-05-24T05:19:07.686Z,43.71
2023-05-24T05:20:07.741Z,43.74
2023-05-24T05:21:07.722Z,43.70
2023-05-24T05:22:07.761Z,43.67
2023-05-24T05:23:07.768Z,43.60
2023-05-24T05:24:07.757Z,43.70
2023-05-24T05:25:07.804Z,43.71
2023-05-24T05:26:07.805Z,43.68
2023-05-24T05:27:07.815Z,43.70
2023-05-24T05:28:07.853Z,43.65
2023-05-24T05:29:07.859Z,43.68
2023-05-24T05:30:07.843Z,43.70
2023-05-24T05:31:07.857Z,43.65
2023-05-24T05:32:07.916Z,43.66
2023-05-24T05:33:07.991Z,43.66
2023-05-24T05:34:07.888Z,43.63
2023-05-24T05:35:07.941Z,43.67
2023-05-24T05:36:07.924Z,43.64
2023-05-24T05:37:07.940Z,43.65
2023-05-24T05:38:07.949Z,43.56
2023-05-24T05:39:07.962Z,43.67
2023-05-24T05:40:07.954Z,43.67
2023-05-24T05:41:07.971Z,43.65
2023-05-24T05:42:07.968Z,43.62
2023-05-24T05:43:07.967Z,43.57
2023-05-24T05:44:07.997Z,43.59
2023-05-24T05:45:08.109Z,43.58
2023-05-24T05:46:08.006Z,43.59
2023-05-24T05:47:07.996Z,43.57
2023-05-24T05:48:08.078Z,43.54
2023-05-24T05:49:08.045Z,43.53
2023-05-24T05:50:08.043Z,43.50
2023-05-24T05:51:08.035Z,43.55
2023-05-24T05:52:08.035Z,43.57
2023-05-24T05:53:08.062Z,43.62
2023-05-24T05:54:08.021Z,43.54
2023-05-24T05:55:08.025Z,43.50
2023-05-24T05:56:08.075Z,43.48
2023-05-24T05:57:08.078Z,43.48
2023-05-24T05:58:08.060Z,43.47
2023-05-24T05:59:08.107Z,43.46
2023-05-24T06:00:08.066Z,43.40
2023-05-24T06:01:08.089Z,43.40
2023-05-24T06:02:08.217Z,43.39
2023-05-24T06:03:08.252Z,43.37
2023-05-24T06:04:08.328Z,43.37
2023-05-24T06:05:08.175Z,43.26
2023-05-24T06:06:08.167Z,43.33
2023-05-24T06:07:08.165Z,43.33
2023-05-24T06:08:08.199Z,43.34
2023-05-24T06:09:08.204Z,43.33
2023-05-24T06:10:08.187Z,43.32
2023-05-24T06:11:08.222Z,43.32
2023-05-24T06:12:08.171Z,43.30
2023-05-24T06:13:08.207Z,43.26
2023-05-24T06:14:08.221Z,43.27
2023-05-24T06:15:08.263Z,43.29
2023-05-24T06:16:08.274Z,43.23
2023-05-24T06:17:08.280Z,43.21
2023-05-24T06:18:08.270Z,43.18
2023-05-24T06:19:08.306Z,43.18
2023-05-24T06:20:08.376Z,43.20
2023-05-24T06:21:08.326Z,43.16
2023-05-24T06:22:08.303Z,43.19
2023-05-24T06:23:08.339Z,43.14
2023-05-24T06:24:08.375Z,43.18
2023-05-24T06:25:08.386Z,43.19
2023-05-24T06:26:08.372Z,43.22
2023-05-24T06:27:08.389Z,43.19
2023-05-24T06:28:08.421Z,43.21
2023-05-24T06:29:08.438Z,43.25
2023-05-24T06:30:08.491Z,43.20
2023-05-24T06:31:08.485Z,43.18
2023-05-24T06:32:08.515Z,43.16
2023-05-24T06:33:08.502Z,43.14
2023-05-24T06:34:08.512Z,43.20
2023-05-24T06:35:08.535Z,43.13
2023-05-24T06:36:08.538Z,43.20
2023-05-24T06:37:08.559Z,43.24
2023-05-24T06:38:08.577Z,43.14
2023-05-24T06:39:08.550Z,43.16
2023-05-24T06:40:08.565Z,43.17
2023-05-24T06:41:08.606Z,43.13
2023-05-24T06:42:08.604Z,43.11
2023-05-24T06:43:08.588Z,43.07
2023-05-24T06:44:08.610Z,43.02
2023-05-24T06:45:08.733Z,43.06
2023-05-24T06:46:08.624Z,43.03
2023-05-24T06:47:08.680Z,43.06
2023-05-24T06:48:08.799Z,43.03
2023-05-24T06:49:08.736Z,43.05
2023-05-24T06:50:08.657Z,43.02
2023-05-24T06:51:08.649Z,43.03
2023-05-24T06:52:08.697Z,43.02
2023-05-24T06:53:08.659Z,42.96
2023-05-24T06:54:08.685Z,42.88
2023-05-24T06:55:08.714Z,42.86
2023-05-24T06:56:08.705Z,42.80
2023-05-24T06:57:08.689Z,42.73
2023-05-24T06:58:08.698Z,42.76
2023-05-24T06:59:08.747Z,42.70
2023-05-24T07:00:08.761Z,42.68
2023-05-24T07:01:08.871Z,42.67
2023-05-24T07:02:08.770Z,42.68
2023-05-24T07:03:08.780Z,42.58
2023-05-24T07:04:08.807Z,42.58
2023-05-24T07:05:08.774Z,42.60
2023-05-24T07:06:08.794Z,42.58
2023-05-24T07:07:08.790Z,42.56
2023-05-24T07:08:08.797Z,42.56
2023-05-24T07:09:08.810Z,42.51
2023-05-24T07:10:08.838Z,42.52
2023-05-24T07:11:08.885Z,42.51
2023-05-24T07:12:09.279Z,42.54
2023-05-24T07:13:08.811Z,42.53
2023-05-24T07:14:10.923Z,42.34
2023-05-24T07:15:08.837Z,42.34
2023-05-24T07:16:08.832Z,42.43
2023-05-24T07:17:08.957Z,42.40
2023-05-24T07:18:08.937Z,42.47
2023-05-24T07:19:08.833Z,42.39
2023-05-24T07:20:09.026Z,42.33
2023-05-24T07:21:08.915Z,42.40
2023-05-24T07:22:08.854Z,42.33
2023-05-24T07:23:08.873Z,42.33
2023-05-24T07:24:08.870Z,42.38
2023-05-24T07:25:08.865Z,42.33
2023-05-24T07:26:08.880Z,42.29
2023-05-24T07:27:08.866Z,42.32
2023-05-24T07:28:08.878Z,42.28
2023-05-24T07:29:08.883Z,42.30
2023-05-24T07:30:19.698Z,42.29
2023-05-24T07:31:09.907Z,42.29
2023-05-24T07:32:08.911Z,42.24
2023-05-24T07:33:09.039Z,42.23
2023-05-24T07:34:08.859Z,42.16
2023-05-24T07:35:08.874Z,42.14
2023-05-24T07:36:08.881Z,42.14
2023-05-24T07:37:08.823Z,42.07
2023-05-24T07:38:08.855Z,42.07
2023-05-24T07:39:08.812Z,42.07
2023-05-24T07:40:08.811Z,42.08
2023-05-24T07:41:08.790Z,42.02
2023-05-24T07:42:08.804Z,41.95
2023-05-24T07:43:08.782Z,43.83
2023-05-24T07:44:08.799Z,44.06
2023-05-24T07:45:08.773Z,43.14
2023-05-24T07:46:08.785Z,44.28
2023-05-24T07:47:08.749Z,44.38
2023-05-24T07:48:08.825Z,44.95
2023-05-24T07:49:08.767Z,43.74
2023-05-24T07:50:08.738Z,44.02
2023-05-24T07:51:08.740Z,44.17
2023-05-24T07:52:08.728Z,44.10
2023-05-24T07:53:08.717Z,44.55
2023-05-24T07:54:08.708Z,44.56
2023-05-24T07:55:08.721Z,44.39
2023-05-24T07:56:08.689Z,44.44
2023-05-24T07:57:09.544Z,44.57
2023-05-24T07:58:08.746Z,44.89
2023-05-24T07:59:08.793Z,44.98
2023-05-24T08:00:08.819Z,45.15
2023-05-24T08:01:08.928Z,45.28
2023-05-24T08:02:08.852Z,45.41
2023-05-24T08:03:09.039Z,45.20
2023-05-24T08:04:08.974Z,45.32
2023-05-24T08:05:08.915Z,45.52
2023-05-24T08:06:08.885Z,45.74
2023-05-24T08:07:10.869Z,45.41
2023-05-24T08:08:08.900Z,45.47
2023-05-24T08:09:08.915Z,45.57
2023-05-24T08:10:08.913Z,45.82
2023-05-24T08:11:08.935Z,45.82
2023-05-24T08:12:08.900Z,45.88
2023-05-24T08:13:08.910Z,45.96
2023-05-24T08:14:08.912Z,45.96
2023-05-24T08:15:08.969Z,45.97
2023-05-24T08:16:09.043Z,45.98
2023-05-24T08:17:09.031Z,46.07
2023-05-24T08:18:09.150Z,45.93
2023-05-24T08:19:09.157Z,45.95
2023-05-24T08:20:09.316Z,46.14
2023-05-24T08:21:09.314Z,46.05
2023-05-24T08:22:09.358Z,45.64
2023-05-24T08:23:09.397Z,45.73
2023-05-24T08:24:09.794Z,45.91
2023-05-24T08:25:09.533Z,45.98
2023-05-24T08:26:09.608Z,46.06
2023-05-24T08:27:09.651Z,46.13
2023-05-24T08:28:09.760Z,46.08
2023-05-24T08:29:09.781Z,46.09
2023-05-24T08:30:09.832Z,46.18
2023-05-24T08:31:09.899Z,46.22
2023-05-24T08:32:10.040Z,46.30
2023-05-24T08:33:10.021Z,46.31
2023-05-24T08:34:10.010Z,46.28
2023-05-24T08:35:19.590Z,46.32
2023-05-24T08:36:11.058Z,46.49
2023-05-24T08:37:10.084Z,46.30
2023-05-24T08:38:10.048Z,47.86
2023-05-24T08:39:10.043Z,45.78
2023-05-24T08:40:10.100Z,45.70
2023-05-24T08:41:10.053Z,45.95
2023-05-24T08:42:10.615Z,46.35
2023-05-24T08:43:10.006Z,46.57
2023-05-24T08:44:10.032Z,46.62
2023-05-24T08:45:09.997Z,46.62
2023-05-24T08:46:10.015Z,46.60
2023-05-24T08:47:09.992Z,46.91
2023-05-24T08:48:10.103Z,46.76
2023-05-24T08:49:10.069Z,46.93
2023-05-24T08:50:09.987Z,47.06
2023-05-24T08:51:09.948Z,47.19
2023-05-24T08:52:09.965Z,46.73
2023-05-24T08:53:10.001Z,46.73
2023-05-24T08:54:10.021Z,46.12
2023-05-24T08:55:10.021Z,46.17
2023-05-24T08:56:10.066Z,46.26
2023-05-24T08:57:10.084Z,46.36
2023-05-24T08:58:10.077Z,46.50
2023-05-24T08:59:10.112Z,46.45
2023-05-24T09:00:10.153Z,46.43
2023-05-24T09:01:10.211Z,46.55
2023-05-24T09:02:10.189Z,46.56
2023-05-24T09:03:10.246Z,46.55
2023-05-24T09:04:10.267Z,46.51
2023-05-24T09:05:10.204Z,46.51
2023-05-24T09:06:10.176Z,46.28
2023-05-24T09:07:10.174Z,46.23
2023-05-24T09:08:10.249Z,46.48
2023-05-24T09:09:10.208Z,46.50
2023-05-24T09:10:10.231Z,46.55
2023-05-24T09:11:10.240Z,46.53
2023-05-24T09:12:11.096Z,46.54
2023-05-24T09:13:10.264Z,46.57
2023-05-24T09:14:10.273Z,46.59
2023-05-24T09:15:10.257Z,46.61
2023-05-24T09:16:10.266Z,46.60
2023-05-24T09:17:10.210Z,46.63
2023-05-24T09:18:10.245Z,46.67
2023-05-24T09:19:10.176Z,46.72
2023-05-24T09:20:10.400Z,46.70
2023-05-24T09:21:10.199Z,46.65
2023-05-24T09:22:10.172Z,46.68
2023-05-24T09:23:10.157Z,46.64
2023-05-24T09:24:10.156Z,46.60
2023-05-24T09:25:10.274Z,46.38
2023-05-24T09:26:10.196Z,46.84
2023-05-24T09:27:10.144Z,46.80
2023-05-24T09:28:10.191Z,46.48
2023-05-24T09:29:10.115Z,46.43
2023-05-24T09:30:10.395Z,46.17
2023-05-24T09:31:10.139Z,46.17
2023-05-24T09:32:10.099Z,46.42
2023-05-24T09:33:10.147Z,46.31
2023-05-24T09:34:10.076Z,46.23
2023-05-24T09:35:10.416Z,46.17
2023-05-24T09:36:10.107Z,46.14
2023-05-24T09:37:10.083Z,46.07
2023-05-24T09:38:10.064Z,46.03
2023-05-24T09:39:10.032Z,45.95
2023-05-24T09:40:10.059Z,45.95
2023-05-24T09:41:10.040Z,45.98
2023-05-24T09:42:10.031Z,45.96
2023-05-24T09:43:10.202Z,45.93
2023-05-24T09:44:10.012Z,45.94
2023-05-24T09:45:10.062Z,45.96
2023-05-24T09:46:10.003Z,45.97
2023-05-24T09:47:10.037Z,45.99
2023-05-24T09:48:10.033Z,46.02
2023-05-24T09:49:09.985Z,45.97
2023-05-24T09:50:09.969Z,45.95
2023-05-24T09:51:10.112Z,45.91
2023-05-24T09:52:10.093Z,45.94
2023-05-24T09:53:09.935Z,45.94
2023-05-24T09:54:09.946Z,45.90
2023-05-24T09:55:09.950Z,45.93
2023-05-24T09:56:09.965Z,45.95
2023-05-24T09:57:09.926Z,45.89
2023-05-24T09:58:09.893Z,45.87
2023-05-24T09:59:09.949Z,45.91
2023-05-24T10:00:09.877Z,45.91
2023-05-24T10:01:09.919Z,45.87
2023-05-24T10:02:09.909Z,45.90
2023-05-24T10:03:09.923Z,45.91
2023-05-24T10:04:10.518Z,45.90
2023-05-24T10:05:09.887Z,45.85
2023-05-24T10:06:09.842Z,45.90
2023-05-24T10:07:09.832Z,45.87
2023-05-24T10:08:09.833Z,45.85
2023-05-24T10:09:09.950Z,45.88
2023-05-24T10:10:09.813Z,45.81
2023-05-24T10:11:09.823Z,45.82
2023-05-24T10:12:09.838Z,45.85
2023-05-24T10:13:09.789Z,45.85
2023-05-24T10:14:09.779Z,45.79
2023-05-24T10:15:09.767Z,45.76
2023-05-24T10:16:09.907Z,45.83
2023-05-24T10:17:11.382Z,45.82
2023-05-24T10:18:12.236Z,45.81
2023-05-24T10:19:09.789Z,45.81
2023-05-24T10:20:09.781Z,45.76
2023-05-24T10:21:09.815Z,45.75
2023-05-24T10:22:09.734Z,45.78
2023-05-24T10:23:09.732Z,45.80
2023-05-24T10:24:09.730Z,45.77
2023-05-24T10:25:09.749Z,45.76
2023-05-24T10:26:09.777Z,45.72
2023-05-24T10:27:09.695Z,45.74
2023-05-24T10:28:09.696Z,45.74
2023-05-24T10:29:09.657Z,45.72
2023-05-24T10:30:12.173Z,45.74
2023-05-24T10:31:09.700Z,45.73
2023-05-24T10:32:09.761Z,45.67
2023-05-24T10:33:09.727Z,45.73
2023-05-24T10:34:09.664Z,45.66
2023-05-24T10:35:09.638Z,45.66
2023-05-24T10:36:09.980Z,45.65
2023-05-24T10:37:09.609Z,45.69
2023-05-24T10:38:09.652Z,45.69
2023-05-24T10:39:09.596Z,45.61
2023-05-24T10:40:09.613Z,45.62
2023-05-24T10:41:09.724Z,45.60
2023-05-24T10:42:10.127Z,45.62
2023-05-24T10:43:09.588Z,45.58
2023-05-24T10:44:10.284Z,45.56
2023-05-24T10:45:09.572Z,45.51
2023-05-24T10:46:09.581Z,45.54
2023-05-24T10:47:09.569Z,45.53
2023-05-24T10:48:09.599Z,45.53
2023-05-24T10:49:09.581Z,45.53
2023-05-24T10:50:09.540Z,45.52
2023-05-24T10:51:09.515Z,45.44
2023-05-24T10:52:09.521Z,45.47
2023-05-24T10:53:09.488Z,45.46
2023-05-24T10:54:09.504Z,45.47
2023-05-24T10:55:09.571Z,45.42
2023-05-24T10:56:09.474Z,45.45
2023-05-24T10:57:09.507Z,45.43
2023-05-24T10:58:09.481Z,45.44
2023-05-24T10:59:09.480Z,45.43
2023-05-24T11:00:10.090Z,45.79
2023-05-24T11:01:09.450Z,46.53
2023-05-24T11:02:09.636Z,46.42
2023-05-24T11:03:09.798Z,46.70
2023-05-24T11:04:09.433Z,45.87
2023-05-24T11:05:09.488Z,46.37
2023-05-24T11:06:09.414Z,46.20
2023-05-24T11:07:09.436Z,46.64
2023-05-24T11:08:09.472Z,46.83
2023-05-24T11:09:09.396Z,47.06
2023-05-24T11:10:09.412Z,47.11
2023-05-24T11:11:23.328Z,47.38
2023-05-24T11:12:10.364Z,47.57
2023-05-24T11:13:09.379Z,47.74
2023-05-24T11:14:09.349Z,47.81
2023-05-24T11:15:09.363Z,47.97
2023-05-24T11:16:09.381Z,47.99
2023-05-24T11:17:09.350Z,48.02
2023-05-24T11:18:11.028Z,47.96
2023-05-24T11:19:09.325Z,47.98
2023-05-24T11:20:09.377Z,48.02
2023-05-24T11:21:09.337Z,47.97
2023-05-24T11:22:09.418Z,47.96
2023-05-24T11:23:09.523Z,47.92
2023-05-24T11:24:09.546Z,48.30
2023-05-24T11:25:09.568Z,47.83
2023-05-24T11:26:09.625Z,47.95
2023-05-24T11:27:09.696Z,47.95
2023-05-24T11:28:09.751Z,47.88
2023-05-24T11:29:09.777Z,47.74
2023-05-24T11:30:09.871Z,47.78
2023-05-24T11:31:09.964Z,47.72
2023-05-24T11:32:10.163Z,46.25
2023-05-24T11:33:10.065Z,45.05
2023-05-24T11:34:10.093Z,45.10
2023-05-24T11:35:10.077Z,44.61
2023-05-24T11:36:10.049Z,44.44
2023-05-24T11:37:10.072Z,44.11
2023-05-24T11:38:10.069Z,44.20
2023-05-24T11:39:10.054Z,44.27
2023-05-24T11:40:10.240Z,44.15
2023-05-24T11:41:10.085Z,43.76
2023-05-24T11:42:10.109Z,43.55
2023-05-24T11:43:10.069Z,43.28
2023-05-24T11:44:10.106Z,43.23
2023-05-24T11:45:10.141Z,43.26
2023-05-24T11:46:10.194Z,43.15
2023-05-24T11:47:10.229Z,43.19
2023-05-24T11:48:10.281Z,43.40
2023-05-24T11:49:10.233Z,43.26
2023-05-24T11:50:10.384Z,43.31
2023-05-24T11:51:10.310Z,43.33
2023-05-24T11:52:10.366Z,43.23
2023-05-24T11:53:10.402Z,43.21
2023-05-24T11:54:10.407Z,43.29
2023-05-24T11:55:10.489Z,43.17
2023-05-24T11:56:10.528Z,43.06
2023-05-24T11:57:10.560Z,43.12
2023-05-24T11:58:10.606Z,43.09
2023-05-24T11:59:10.675Z,43.05
2023-05-24T12:00:10.759Z,43.02
2023-05-24T12:01:10.803Z,42.99
2023-05-24T12:02:10.930Z,42.85
2023-05-24T12:03:10.990Z,42.77
2023-05-24T12:04:11.008Z,42.70
2023-05-24T12:05:11.018Z,42.66
2023-05-24T12:06:11.066Z,42.66
2023-05-24T12:07:11.132Z,42.52
2023-05-24T12:08:12.698Z,42.30
2023-05-24T12:09:11.166Z,42.07
2023-05-24T12:10:11.208Z,42.02
2023-05-24T12:11:11.232Z,41.94
2023-05-24T12:12:11.245Z,41.98
2023-05-24T12:13:11.248Z,42.01
2023-05-24T12:14:11.241Z,42.03
2023-05-24T12:15:11.275Z,41.97
2023-05-24T12:16:11.289Z,41.98
2023-05-24T12:17:11.256Z,42.02
2023-05-24T12:18:11.533Z,42.14
2023-05-24T12:19:20.099Z,42.13
2023-05-24T12:20:12.358Z,42.17
2023-05-24T12:21:11.214Z,42.25
2023-05-24T12:22:11.240Z,42.32
2023-05-24T12:23:11.213Z,42.36
2023-05-24T12:24:11.218Z,42.40
2023-05-24T12:25:11.199Z,42.32
2023-05-24T12:26:11.217Z,42.40
2023-05-24T12:27:11.166Z,42.37
2023-05-24T12:28:11.192Z,42.17
2023-05-24T12:29:11.158Z,42.14
2023-05-24T12:30:11.155Z,42.13
2023-05-24T12:31:11.153Z,41.94
2023-05-24T12:32:11.167Z,41.81
2023-05-24T12:33:11.191Z,41.67
2023-05-24T12:34:11.115Z,41.56
2023-05-24T12:35:11.136Z,41.49
2023-05-24T12:36:11.147Z,41.37
2023-05-24T12:37:11.105Z,41.42
2023-05-24T12:38:11.108Z,41.38
2023-05-24T12:39:11.103Z,41.31
2023-05-24T12:40:11.099Z,41.26
2023-05-24T12:41:13.126Z,41.42
2023-05-24T12:42:11.094Z,41.44
2023-05-24T12:43:11.072Z,41.41
2023-05-24T12:44:11.057Z,41.45
2023-05-24T12:45:11.076Z,41.45
2023-05-24T12:46:11.061Z,41.51
2023-05-24T12:47:11.098Z,41.52
2023-05-24T12:48:11.075Z,41.51
2023-05-24T12:49:11.049Z,41.51
2023-05-24T12:50:11.038Z,41.54
2023-05-24T12:51:11.023Z,41.53
2023-05-24T12:52:11.012Z,41.51
2023-05-24T12:53:10.996Z,41.55